createdAt,value
2018-09-12T00:04:11.098Z,101439.00
2018-09-12T00:09:15.798Z,101430.00
2018-09-12T00:14:19.914Z,101429.00
2018-09-12T00:19:23.719Z,101418.00
2018-09-12T00:24:27.757Z,101413.00
2018-09-12T00:29:31.557Z,101416.00
2018-09-12T00:34:35.613Z,101407.00
2018-09-12T00:39:39.640Z,101402.00
2018-09-12T00:44:43.742Z,101400.00
2018-09-12T00:49:47.779Z,101396.00
2018-09-12T00:54:51.824Z,101396.00
2018-09-12T00:59:55.914Z,101398.00
2018-09-12T01:04:59.975Z,101394.00
2018-09-12T01:10:04.066Z,101380.00
2018-09-12T01:15:07.857Z,101372.00
2018-09-12T01:20:11.904Z,101369.00
2018-09-12T01:25:15.737Z,101365.00
2018-09-12T01:30:24.431Z,101361.00
2018-09-12T01:35:28.469Z,101372.00
2018-09-12T01:40:32.510Z,101370.00
2018-09-12T01:45:36.678Z,101365.00
2018-09-12T01:50:40.721Z,101365.00
2018-09-12T01:55:46.049Z,101363.00
2018-09-12T02:00:50.025Z,101367.00
2018-09-12T02:05:54.056Z,101358.00
2018-09-12T02:10:58.145Z,101352.00
2018-09-12T02:16:02.168Z,101345.00
2018-09-12T02:21:06.288Z,101341.00
2018-09-12T02:26:10.333Z,101340.00
2018-09-12T02:31:14.439Z,101337.00
2018-09-12T02:36:23.773Z,101344.00
2018-09-12T02:41:28.049Z,101338.00
2018-09-12T02:46:31.853Z,101332.00
2018-09-12T02:51:35.979Z,101330.00
2018-09-12T02:56:40.008Z,101334.00
2018-09-12T03:01:44.344Z,101333.00
2018-09-12T03:06:48.145Z,101325.00
2018-09-12T03:11:52.053Z,101315.00
2018-09-12T03:17:01.951Z,101313.00
2018-09-12T03:22:06.138Z,101308.00
2018-09-12T03:27:10.156Z,101302.00
2018-09-12T03:32:14.254Z,101300.00
2018-09-12T03:37:18.310Z,101297.00
2018-09-12T03:42:22.363Z,101293.00
2018-09-12T03:47:26.173Z,101301.00
2018-09-12T03:52:30.267Z,101298.00
2018-09-12T03:57:34.330Z,101300.00
2018-09-12T04:02:38.217Z,101295.00
2018-09-12T04:07:42.201Z,101285.00
2018-09-12T04:12:46.303Z,101284.00
2018-09-12T04:17:50.394Z,101284.00
2018-09-12T04:22:54.458Z,101279.00
2018-09-12T04:27:58.602Z,101275.00
2018-09-12T04:33:02.655Z,101261.00
2018-09-12T04:38:06.561Z,101260.00
2018-09-12T04:43:10.436Z,101256.00
2018-09-12T04:48:14.346Z,101260.00
2018-09-12T04:53:18.858Z,101262.00
2018-09-12T04:58:22.967Z,101266.00
2018-09-12T05:03:27.100Z,101266.00
2018-09-12T05:08:31.250Z,101267.00
2018-09-12T05:13:35.328Z,101270.00
2018-09-12T05:18:39.418Z,101270.00
2018-09-12T05:23:43.251Z,101270.00
2018-09-12T05:28:47.308Z,101273.00
2018-09-12T05:33:51.497Z,101261.00
2018-09-12T05:38:55.557Z,101261.00
2018-09-12T05:43:59.702Z,101269.00
2018-09-12T05:49:03.916Z,101268.00
2018-09-12T05:54:08.030Z,101273.00
2018-09-12T05:59:11.909Z,101279.00
2018-09-12T06:04:15.718Z,101289.00
2018-09-12T06:09:19.520Z,101299.00
2018-09-12T06:14:23.547Z,101309.00
2018-09-12T06:19:27.613Z,101315.00
2018-09-12T06:24:31.641Z,101324.00
2018-09-12T06:29:35.707Z,101326.00
2018-09-12T06:34:39.735Z,101333.00
2018-09-12T06:39:43.765Z,101338.00
2018-09-12T06:44:47.631Z,101346.00
2018-09-12T06:49:51.408Z,101346.00
2018-09-12T06:54:55.417Z,101347.00
2018-09-12T06:59:59.518Z,101340.00
2018-09-12T07:05:03.570Z,101347.00
2018-09-12T07:10:07.636Z,101353.00
2018-09-12T07:15:11.443Z,101358.00
2018-09-12T07:20:15.259Z,101352.00
2018-09-12T07:25:19.377Z,101358.00
2018-09-12T07:30:23.481Z,101356.00
2018-09-12T07:35:27.534Z,101361.00
2018-09-12T07:40:32.497Z,101364.00
2018-09-12T07:45:36.671Z,101359.00
2018-09-12T07:50:49.179Z,101356.00
2018-09-12T07:55:53.082Z,101365.00
2018-09-12T08:00:56.817Z,101357.00
2018-09-12T08:06:00.720Z,101357.00
2018-09-12T08:11:04.853Z,101365.00
2018-09-12T08:16:09.247Z,101355.00
2018-09-12T08:21:13.390Z,101360.00
2018-09-12T08:26:17.499Z,101356.00
2018-09-12T08:31:21.553Z,101365.00
2018-09-12T08:36:25.446Z,101367.00
2018-09-12T08:41:29.577Z,101372.00
2018-09-12T08:46:33.643Z,101372.00
2018-09-12T08:51:37.464Z,101386.00
2018-09-12T08:56:41.594Z,101385.00
2018-09-12T09:01:45.451Z,101397.00
2018-09-12T09:06:49.501Z,101403.00
2018-09-12T09:11:53.658Z,101412.00
2018-09-12T09:16:57.485Z,101405.00
2018-09-12T09:22:01.629Z,101404.00
2018-09-12T09:27:05.497Z,101402.00
2018-09-12T09:32:09.529Z,101401.00
2018-09-12T09:37:13.625Z,101400.00
2018-09-12T09:42:17.702Z,101399.00
2018-09-12T09:47:21.777Z,101399.00
2018-09-12T09:52:27.219Z,101397.00
2018-09-12T09:57:31.286Z,101398.00
2018-09-12T10:02:41.049Z,101394.00
2018-09-12T10:07:51.731Z,101393.00
2018-09-12T10:12:55.774Z,101397.00
2018-09-12T10:17:59.621Z,101397.00
2018-09-12T10:23:03.694Z,101397.00
2018-09-12T10:28:07.502Z,101394.00
2018-09-12T10:33:11.546Z,101386.00
2018-09-12T10:38:15.848Z,101388.00
2018-09-12T10:43:19.918Z,101371.00
2018-09-12T10:48:23.965Z,101369.00
2018-09-12T10:53:28.029Z,101359.00
2018-09-12T10:58:32.041Z,101358.00
2018-09-12T11:03:36.110Z,101355.00
2018-09-12T11:08:39.942Z,101353.00
2018-09-12T11:13:43.993Z,101355.00
2018-09-12T11:18:48.074Z,101351.00
2018-09-12T11:23:51.970Z,101319.00
2018-09-12T11:28:55.786Z,101346.00
2018-09-12T11:33:59.711Z,101339.00
2018-09-12T11:39:03.650Z,101341.00
2018-09-12T11:44:07.730Z,101331.00
2018-09-12T11:49:11.843Z,101335.00
2018-09-12T11:54:15.673Z,101324.00
2018-09-12T11:59:19.772Z,101329.00
2018-09-12T12:04:23.827Z,101323.00
2018-09-12T12:09:27.999Z,101325.00
2018-09-12T12:14:31.801Z,101323.00
2018-09-12T12:19:35.729Z,101315.00
2018-09-12T12:24:39.581Z,101319.00
2018-09-12T12:29:43.689Z,101304.00
2018-09-12T12:34:47.758Z,101301.00
2018-09-12T12:39:51.981Z,101298.00
2018-09-12T12:44:55.837Z,101289.00
2018-09-12T12:49:59.971Z,101283.00
2018-09-12T12:55:04.046Z,101286.00
2018-09-12T13:00:07.978Z,101285.00
2018-09-12T13:05:12.048Z,101272.00
2018-09-12T13:10:16.111Z,101265.00
2018-09-12T13:15:19.938Z,101247.00
2018-09-12T13:20:23.726Z,101255.00
2018-09-12T13:25:27.766Z,101248.00
2018-09-12T13:30:31.592Z,101250.00
2018-09-12T13:35:35.686Z,101236.00
2018-09-12T13:40:39.480Z,101236.00
2018-09-12T13:45:43.538Z,101230.00
2018-09-12T13:50:47.570Z,101228.00
2018-09-12T13:55:51.681Z,101226.00
2018-09-12T14:00:55.723Z,101232.00
2018-09-12T14:06:00.282Z,101228.00
2018-09-12T14:11:04.317Z,101234.00
2018-09-12T14:16:08.122Z,101227.00
2018-09-12T14:21:12.461Z,101223.00
2018-09-12T14:26:16.625Z,101232.00
2018-09-12T14:31:20.797Z,101231.00
2018-09-12T14:36:24.834Z,101226.00
2018-09-12T14:41:28.962Z,101223.00
2018-09-12T14:46:32.793Z,101226.00
2018-09-12T14:51:36.877Z,101231.00
2018-09-12T14:56:41.887Z,101220.00
2018-09-12T15:01:46.034Z,101222.00
2018-09-12T15:06:49.834Z,101225.00
2018-09-12T15:11:53.862Z,101220.00
2018-09-12T15:16:57.660Z,101216.00
2018-09-12T15:22:01.798Z,101222.00
2018-09-12T15:27:05.743Z,101233.00
2018-09-12T15:32:09.501Z,101241.00
2018-09-12T15:37:13.405Z,101252.00
2018-09-12T15:42:17.204Z,101252.00
2018-09-12T15:47:22.317Z,101266.00
2018-09-12T15:52:26.069Z,101265.00
2018-09-12T15:57:30.171Z,101277.00
2018-09-12T16:02:34.028Z,101278.00
2018-09-12T16:07:37.829Z,101279.00
2018-09-12T16:12:41.650Z,101281.00
2018-09-12T16:17:52.369Z,101286.00
2018-09-12T16:22:56.200Z,101288.00
2018-09-12T16:28:00.277Z,101303.00
2018-09-12T16:33:04.865Z,101299.00
2018-09-12T16:38:08.901Z,101310.00
2018-09-12T16:43:12.942Z,101317.00
2018-09-12T16:48:16.728Z,101332.00
2018-09-12T16:53:20.632Z,101329.00
2018-09-12T16:58:24.705Z,101324.00
2018-09-12T17:03:28.809Z,101326.00
2018-09-12T17:08:32.849Z,101335.00
2018-09-12T17:13:36.929Z,101338.00
2018-09-12T17:18:41.007Z,101336.00
2018-09-12T17:23:45.134Z,101338.00
2018-09-12T17:28:49.136Z,101346.00
2018-09-12T17:33:53.041Z,101350.00
2018-09-12T17:38:57.082Z,101352.00
2018-09-12T17:44:00.999Z,101348.00
2018-09-12T17:49:04.882Z,101349.00
2018-09-12T17:54:08.694Z,101351.00
2018-09-12T17:59:12.507Z,101355.00
2018-09-12T18:04:16.316Z,101351.00
2018-09-12T18:09:20.253Z,101360.00
2018-09-12T18:14:24.049Z,101364.00
2018-09-12T18:19:28.325Z,101371.00
2018-09-12T18:24:32.902Z,101378.00
2018-09-12T18:29:37.179Z,101375.00
2018-09-12T18:34:41.001Z,101386.00
2018-09-12T18:39:45.126Z,101391.00
2018-09-12T18:44:48.954Z,101392.00
2018-09-12T18:49:53.005Z,101394.00
2018-09-12T18:54:57.065Z,101400.00
2018-09-12T19:00:02.207Z,101411.00
2018-09-12T19:05:06.707Z,101411.00
2018-09-12T19:10:11.708Z,101424.00
2018-09-12T19:15:15.826Z,101408.00
2018-09-12T19:20:19.934Z,101403.00
2018-09-12T19:25:24.043Z,101417.00
2018-09-12T19:30:28.145Z,101426.00
2018-09-12T19:35:32.221Z,101440.00
2018-09-12T19:40:36.325Z,101442.00
2018-09-12T19:45:40.405Z,101434.00
2018-09-12T19:50:44.467Z,101452.00
2018-09-12T19:55:48.545Z,101461.00
2018-09-12T20:00:52.617Z,101457.00
2018-09-12T20:05:56.709Z,101459.00
2018-09-12T20:11:01.041Z,101463.00
2018-09-12T20:16:05.329Z,101462.00
2018-09-12T20:21:09.326Z,101460.00
2018-09-12T20:26:13.420Z,101458.00
2018-09-12T20:31:17.239Z,101448.00
2018-09-12T20:36:21.358Z,101441.00
2018-09-12T20:41:25.391Z,101441.00
2018-09-12T20:46:29.445Z,101435.00
2018-09-12T20:51:33.502Z,101443.00
2018-09-12T20:56:37.566Z,101449.00
2018-09-12T21:01:41.611Z,101457.00
2018-09-12T21:06:45.658Z,101451.00
2018-09-12T21:11:50.013Z,101438.00
2018-09-12T21:16:53.833Z,101429.00
2018-09-12T21:21:57.993Z,101431.00
2018-09-12T21:27:02.194Z,101431.00
2018-09-12T21:32:06.084Z,101425.00
2018-09-12T21:37:10.142Z,101419.00
2018-09-12T21:42:14.219Z,101423.00
2018-09-12T21:47:18.318Z,101434.00
2018-09-12T21:52:22.393Z,101433.00
2018-09-12T21:57:26.479Z,101432.00
2018-09-12T22:02:30.345Z,101430.00
2018-09-12T22:07:34.495Z,101423.00
2018-09-12T22:12:38.545Z,101419.00
2018-09-12T22:17:42.574Z,101428.00
2018-09-12T22:22:46.436Z,101438.00
2018-09-12T22:27:50.573Z,101434.00
2018-09-12T22:32:54.687Z,101430.00
2018-09-12T22:37:58.993Z,101425.00
2018-09-12T22:43:03.063Z,101428.00
2018-09-12T22:48:07.145Z,101425.00
2018-09-12T22:53:11.215Z,101427.00
2018-09-12T22:58:15.378Z,101432.00
2018-09-12T23:03:20.298Z,101440.00
2018-09-12T23:08:24.377Z,101437.00
2018-09-12T23:13:28.971Z,101443.00
2018-09-12T23:18:33.042Z,101436.00
2018-09-12T23:23:37.144Z,101423.00
2018-09-12T23:28:41.178Z,101408.00
2018-09-12T23:33:51.901Z,101409.00
2018-09-12T23:38:55.941Z,101408.00
2018-09-12T23:44:00.048Z,101407.00
2018-09-12T23:49:04.209Z,101407.00
2018-09-12T23:54:08.310Z,101403.00
2018-09-12T23:59:12.149Z,101398.00
